Home > Products > Valid Products > TAF

000
FTUS43 KPAH 260700 AAA
TAFPAH
TAF AMD
KPAH 260718Z 2607/2706 00000KT 4SM BR SKC
     FM261500 15005KT P6SM SCT045 BKN080
     FM261900 09004KT 4SM -RA BR OVC020
     FM270000 28006KT P6SM BKN020=



000
FTUS43 KPAH 260500
TAFPAH
TAF
KPAH 260520Z 2606/2706 00000KT P6SM SCT200
     FM261500 15005KT P6SM SCT045 BKN080
     FM261900 09004KT 4SM -RA BR OVC020
     FM270000 28006KT P6SM BKN020=



000
FTUS43 KPAH 260500
TAFEVV
TAF
KEVV 260520Z 2606/2706 00000KT P6SM SCT200
     FM261600 11005KT P6SM SCT050 BKN100
     FM262100 09003KT 6SM -RA BR OVC035
     FM270000 02005KT 3SM -RASN BR OVC012
     FM270300 01004KT 6SM -SN BR OVC015=



000
FTUS43 KPAH 260500
TAFCGI
TAF
KCGI 260520Z 2606/2706 00000KT P6SM SCT200
     FM261400 14005KT P6SM SCT045 BKN080
     FM261800 08003KT 3SM -RA BR OVC015
     FM262300 30007KT P6SM BKN020=



000
FTUS43 KPAH 252300 AAA
TAFEVV
TAF AMD
KEVV 252346Z 2600/2624 01003KT P6SM SCT027
     FM260200 00000KT P6SM SCT200
     FM261600 11005KT P6SM BKN100
     FM262100 09003KT P6SM OVC040 PROB30 2621/2624 -RA=



000
FTUS43 KPAH 252300
TAFEVV
TAF
KEVV 252329Z 2600/2624 01003KT P6SM OVC027
     FM260200 00000KT P6SM SCT200
     FM261600 11005KT P6SM BKN100
     FM262100 09003KT P6SM OVC040 PROB30 2621/2624 -RA=



000
FTUS43 KPAH 252300
TAFCGI
TAF
KCGI 252329Z 2600/2624 00000KT P6SM SCT200
     FM261400 14005KT P6SM BKN080
     FM262000 08003KT 5SM -RA BR OVC030=



000
FTUS43 KPAH 252300
TAFPAH
TAF
KPAH 252329Z 2600/2624 00000KT P6SM SCT200
     FM261500 15005KT P6SM BKN080
     FM262000 09004KT 6SM -RA BR OVC030=



000
FTUS43 KPAH 251700
TAFEVV
TAF
KEVV 251720Z 2518/2618 27008KT P6SM SCT025
      TEMPO 2518/2521 BKN025
     FM260000 00000KT P6SM SKC
     FM261500 17006KT P6SM SCT150 BKN250=



000
FTUS43 KPAH 251700
TAFCGI
TAF
KCGI 251720Z 2518/2618 30008KT P6SM SCT250
     FM260000 00000KT P6SM SKC
     FM261000 16004KT P6SM SCT150
     FM261500 17007KT P6SM SCT070 BKN150=



000
FTUS43 KPAH 251700
TAFPAH
TAF
KPAH 251720Z 2518/2618 30008KT P6SM SCT250
     FM260000 00000KT P6SM SKC
     FM261500 17007KT P6SM SCT070 BKN150=



000
FTUS43 KPAH 251100
TAFCGI
TAF
KCGI 251129Z 2512/2612 30006KT P6SM SKC
     FM260000 00000KT P6SM SKC
     FM261000 16004KT P6SM SCT150=



000
FTUS43 KPAH 251100
TAFEVV
TAF
KEVV 251129Z 2512/2612 28006KT P6SM SKC
     FM251600 28007KT P6SM SCT030
     FM260000 00000KT P6SM SKC=



000
FTUS43 KPAH 251100
TAFPAH
TAF
KPAH 251129Z 2512/2612 29006KT P6SM SKC
     FM260000 00000KT P6SM SKC=



000
FTUS43 KPAH 250500
TAFPAH
TAF
KPAH 250520Z 2506/2606 26003KT P6SM SKC
     FM251400 31007KT P6SM SCT250
     FM260000 00000KT P6SM SKC=



000
FTUS43 KPAH 250500
TAFCGI
TAF
KCGI 250520Z 2506/2606 27003KT P6SM SKC
     FM251400 31007KT P6SM SCT250
     FM260000 00000KT P6SM SKC=



000
FTUS43 KPAH 250500
TAFEVV
TAF
KEVV 250520Z 2506/2606 27003KT P6SM SKC
     FM251400 28007KT P6SM SCT030 BKN250
     FM260000 00000KT P6SM SKC=



000
FTUS43 KPAH 242300
TAFPAH
TAF
KPAH 242320Z 2500/2524 25005KT P6SM SCT060
     FM250600 26004KT P6SM SKC
     FM251400 31006KT P6SM SCT250=



000
FTUS43 KPAH 242300
TAFEVV
TAF
KEVV 242320Z 2500/2524 26005KT P6SM BKN050
     FM250900 27005KT P6SM SKC
     FM251400 28007KT P6SM SCT030 BKN250=



000
FTUS43 KPAH 242300
TAFCGI
TAF
KCGI 242320Z 2500/2524 24006KT P6SM SCT060
     FM250600 26004KT P6SM SKC
     FM251400 31006KT P6SM SCT250=



000
FTUS43 KPAH 241700
TAFCGI
TAF
KCGI 241720Z 2418/2518 25015G25KT P6SM SCT035
      TEMPO 2418/2422 BKN035
     FM250000 26006KT P6SM SCT035 BKN070
      TEMPO 2501/2505 BKN035
     FM250700 27005KT P6SM SKC
     FM251400 29006KT P6SM SCT250=



000
FTUS43 KPAH 241700
TAFEVV
TAF
KEVV 241720Z 2418/2518 25017G27KT P6SM SCT025 BKN035
     FM250000 25008KT P6SM SCT035 BKN070
      TEMPO 2504/2508 BKN030
     FM251000 26005KT P6SM SKC
     FM251400 27007KT P6SM SCT250=



000
FTUS43 KPAH 241700
TAFPAH
TAF
KPAH 241720Z 2418/2518 25017G25KT P6SM SCT035
      TEMPO 2418/2422 BKN035
     FM250000 25006KT P6SM SCT035 BKN070
      TEMPO 2502/2506 BKN035
     FM250800 26004KT P6SM SKC
     FM251400 29006KT P6SM SCT250=



000
FTUS43 KPAH 241600 AAB
TAFEVV
TAF AMD
KEVV 241624Z 2416/2512 25017G27KT P6SM SCT025 BKN035
     FM250000 25008KT P6SM SCT035 BKN070
      TEMPO 2504/2508 BKN030
     FM251000 26005KT P6SM SKC=



000
FTUS43 KPAH 241400 AAA
TAFEVV
TAF AMD
KEVV 241441Z 2415/2512 26018G26KT P6SM BKN025
     FM250000 25008KT P6SM SCT050=



000
FTUS43 KPAH 241400 AAA
TAFCGI
TAF AMD
KCGI 241439Z 2415/2512 26015G25KT P6SM BKN035
      TEMPO 2417/2421 SCT035
     FM250000 25006KT P6SM FEW050=



000
FTUS43 KPAH 241400 AAA
TAFPAH
TAF AMD
KPAH 241439Z 2415/2512 26015G25KT P6SM BKN035
      TEMPO 2418/2422 SCT035
     FM250000 25006KT P6SM FEW050=



000
FTUS43 KPAH 241100
TAFPAH
TAF
KPAH 241127Z 2412/2512 26022G35KT P6SM OVC022
     FM241600 26020G34KT P6SM BKN035
     FM250000 25006KT P6SM FEW050=



000
FTUS43 KPAH 241100
TAFEVV
TAF
KEVV 241127Z 2412/2512 22020G30KT P6SM BKN025
     FM241300 26022G34KT P6SM BKN035
     FM250000 25008KT P6SM SCT050=



000
FTUS43 KPAH 241100
TAFCGI
TAF
KCGI 241127Z 2412/2512 25020G29KT P6SM OVC025
     FM241500 26018G27KT P6SM BKN035
     FM250000 25006KT P6SM FEW050=



000
FTUS43 KPAH 241100 AAA
TAFPAH
TAF AMD
KPAH 241112Z 2411/2506 26022G35KT P6SM OVC022
     FM241600 26020G34KT P6SM BKN035
     FM250000 25006KT P6SM FEW050=



000
FTUS43 KPAH 241100 AAB
TAFCGI
TAF AMD
KCGI 241109Z 2411/2506 25020G29KT P6SM OVC025
     FM241500 26018G27KT P6SM BKN035
     FM250000 25006KT P6SM FEW050=



000
FTUS43 KPAH 240500 AAA
TAFCGI
TAF AMD
KCGI 240555Z 2406/2506 22016KT 6SM -SHRA OVC007
     FM240900 25020G29KT P6SM OVC010
     FM241300 26018G27KT P6SM BKN035
     FM250000 25006KT P6SM FEW050=



000
FTUS43 KPAH 240500
TAFEVV
TAF
KEVV 240533Z 2406/2506 20016KT P6SM -SHRA OVC010
     FM240800 22017G24KT P6SM -SHRA OVC008
     FM241100 24022G30KT P6SM OVC010
     FM241700 25018G26KT P6SM BKN035
     FM250000 25008KT P6SM SCT050=



000
FTUS43 KPAH 240500
TAFPAH
TAF
KPAH 240533Z 2406/2506 21013G21KT 6SM -SHRA OVC007
     FM240800 23018G25KT P6SM OVC010
     FM241400 26017G24KT P6SM BKN035
     FM250000 25006KT P6SM FEW050=



000
FTUS43 KPAH 240500
TAFCGI
TAF
KCGI 240533Z 2406/2506 23016KT 6SM -SHRA OVC007
     FM240900 25020G29KT P6SM OVC010
     FM241300 26018G27KT P6SM BKN035
     FM250000 25006KT P6SM FEW050=



000
FTUS43 KPAH 240300 AAA
TAFPAH
TAF AMD
KPAH 240313Z 2403/2424 22012KT 5SM -DZ OVC005
     FM240600 21013G21KT 6SM -DZ OVC005
     FM240800 23018G25KT P6SM OVC007
     FM241400 26017G24KT P6SM BKN035=



000
FTUS43 KPAH 240300 AAA
TAFPAH
TAF AMD
KPAH 240313Z 2403/2424 22012KT 5SM -DZ OVC005
     FM240600 21013G21KT 6SM -DZ OVC005
     FM240800 23018G25KT P6SM OVC007
     FM241400 26017G24KT P6SM BKN035=



000
FTUS43 KPAH 240200 AAB
TAFCGI
TAF AMD
KCGI 240255Z 2403/2424 20013KT 5SM -DZ OVC003
     FM240600 23016G24KT 5SM -DZ OVC005
     FM240900 25020G29KT P6SM OVC010
     FM241300 26018G27KT P6SM BKN035=



000
FTUS43 KPAH 240100 AAA
TAFCGI
TAF AMD
KCGI 240111Z 2401/2424 20011KT P6SM BKN007 OVC015
     FM240900 25020G29KT P6SM OVC010
     FM241300 26018G28KT P6SM BKN035=



000
FTUS43 KPAH 232300 RRA
TAFPAH
TAF
KPAH 232341Z 2400/2424 20008KT 5SM -RA BR BKN005 OVC020
     FM240300 20010KT 6SM -SHRA BR BKN007 OVC020
     FM240800 23018G25KT P6SM OVC007
     FM241400 26017G24KT P6SM BKN035=



000
FTUS43 KPAH 232300 RRA
TAFEVV
TAF
KEVV 232341Z 2400/2424 12006KT 5SM -RA BR BKN007 OVC020
     FM240200 21009KT P6SM OVC007
     FM240500 20011KT 6SM -SHRA BR OVC004
     FM241100 24020G28KT P6SM OVC008
     FM241500 25020G28KT P6SM BKN025=



000
FTUS43 KPAH 232300 RRA
TAFCGI
TAF
KCGI 232341Z 2400/2424 VRB04KT 4SM -RA BR BKN005 OVC020
     FM240230 20010KT P6SM BKN007 OVC020
     FM240900 25020G29KT P6SM OVC010
     FM241300 26018G28KT P6SM BKN035=



000
FTUS43 KPAH 231700
TAFCGI
TAF
KCGI 231720Z 2318/2418 13012KT 3SM -RA BR OVC005
      TEMPO 2318/2322 1SM SHRA BR OVC003
     FM240000 19015G25KT P6SM OVC010
     FM240900 23020G30KT P6SM OVC010
     FM241500 26020G30KT P6SM OVC015=



000
FTUS43 KPAH 231700
TAFEVV
TAF
KEVV 231720Z 2318/2418 12008KT P6SM VCSH OVC025
      TEMPO 2318/2320 5SM -SHRA BR OVC015
     FM232000 14010KT 3SM -RA OVC005
      TEMPO 2320/2324 1SM SHRA BR OVC003
     FM240200 20012G20KT P6SM OVC010
     FM241200 23020G30KT P6SM OVC010=



000
FTUS43 KPAH 231700
TAFPAH
TAF
KPAH 231720Z 2318/2418 14012KT 3SM -RA BR OVC005
      TEMPO 2318/2322 1SM SHRA BR OVC003
     FM240000 19013G23KT P6SM OVC010
     FM240900 22020G30KT P6SM OVC010
     FM241500 26020G30KT P6SM OVC015=



000
FTUS43 KPAH 231600 AAB
TAFEVV
TAF AMD
KEVV 231623Z 2316/2412 14008KT P6SM VCSH OVC020
      TEMPO 2316/2319 5SM -SHRA BR OVC015
     FM231900 14010KT 3SM RA BKN010
      TEMPO 2319/2323 1SM RA BR OVC003
     FM240200 19015KT P6SM OVC010=



000
FTUS43 KPAH 231600 AAA
TAFPAH
TAF AMD
KPAH 231622Z 2316/2412 14010KT P6SM OVC015
     FM231800 15012KT 3SM RA BR OVC005
      TEMPO 2318/2320 2SM SHRA BR OVC003
     FM240000 19013G23KT P6SM OVC015=



000
FTUS43 KPAH 231200 AAA
TAFPAH
TAF AMD
KPAH 231246Z 2313/2412 13008KT P6SM -SHRA BKN015 OVC025
     FM231500 15012KT 3SM RA BR OVC005
      TEMPO 2318/2320 2SM SHRA BR OVC003
     FM240000 19013G23KT P6SM OVC015=



000
FTUS43 KPAH 231200 AAA
TAFCGI
TAF AMD
KCGI 231244Z 2313/2412 14010KT 5SM -RA BR BKN015 OVC030
     FM231500 14012KT 3SM RA BR OVC005
      TEMPO 2317/2321 2SM SHRA BR OVC003
     FM240000 19015G25KT P6SM OVC015=



000
FTUS43 KPAH 231200 AAA
TAFEVV
TAF AMD
KEVV 231240Z 2313/2412 15007KT P6SM BKN025
     FM231600 14010KT 3SM RA BKN010
      TEMPO 2319/2323 1SM RA BR OVC003
     FM240200 19015KT P6SM OVC010=



000
FTUS43 KPAH 231200 RRA
TAFPAH
TAF
KPAH 231235Z 2313/2412 15012KT 3SM RA BR OVC005
      TEMPO 2318/2320 2SM SHRA BR OVC003
     FM240000 19013KT P6SM OVC010=



000
FTUS43 KPAH 231200 RRA
TAFEVV
TAF
KEVV 231235Z 2313/2412 15009KT 3SM RA BR OVC005
      TEMPO 2319/2321 2SM SHRA BR OVC003
     FM240200 19012KT P6SM OVC010=



000
FTUS43 KPAH 231200 RRA
TAFCGI
TAF
KCGI 231235Z 2313/2412 14012KT 3SM RA BR OVC005
      TEMPO 2318/2320 2SM SHRA BR OVC003
     FM240000 19015KT P6SM OVC010=



    US Dept of Commerce
    National Oceanic and Atmospheric Administration
    National Weather Service
    1325 East West Highway
    Silver Spring, MD 20910
    Page Author: NWS Internet Services Team
Disclaimer
Information Quality
Credits
Glossary
Privacy Policy
Freedom of Information Act (FOIA)
About Us
Career Opportunities